Time;durP1;ratioP1;P1;durP2;ratioP2;P2;SDS_P1;SDS_P2;PMS_P1;PMS_P2;Temp;Humidity;BMP_temperature;BMP_pressure;BME280_temperature;BME280_humidity;BME280_pressure;Samples;Min_cycle;Max_cycle;Signal;HPM_P1;HPM_P2
2021/05/02 00:02:14;;;;;;;14.73;6.57;;;6.20;99.90;;;;;;10190424;28;20242;-64
2021/05/02 00:07:15;;;;;;;10.68;6.47;;;6.10;99.90;;;;;;10187947;28;20149;-63
2021/05/02 00:12:17;;;;;;;12.52;5.68;;;6.00;99.90;;;;;;10190801;28;20057;-63
2021/05/02 00:17:19;;;;;;;12.87;3.83;;;5.40;99.90;;;;;;10191294;28;20061;-64
2021/05/02 00:22:22;;;;;;;9.68;4.22;;;5.70;99.90;;;;;;10192096;28;21821;-64
2021/05/02 00:27:27;;;;;;;8.40;2.97;;;5.60;99.40;;;;;;10193187;28;20097;-64
2021/05/02 00:32:29;;;;;;;6.93;3.10;;;5.60;98.90;;;;;;10192570;28;21735;-63
2021/05/02 00:37:31;;;;;;;8.73;4.03;;;5.50;98.00;;;;;;10192349;28;20065;-63
2021/05/02 00:42:35;;;;;;;9.43;3.58;;;5.50;98.20;;;;;;10192760;28;20116;-64
2021/05/02 00:47:39;;;;;;;6.78;3.10;;;5.50;98.20;;;;;;10194133;28;20064;-64
2021/05/02 00:52:57;;;;;;;;;;;5.60;98.10;;;;;;10189060;28;20109;-64
2021/05/02 00:58:02;;;;;;;13.52;3.65;;;5.60;98.10;;;;;;10192360;28;19930;-64
2021/05/02 01:03:05;;;;;;;10.38;4.28;;;5.70;98.40;;;;;;10199514;28;20046;-64
2021/05/02 01:08:08;;;;;;;;;;;5.60;98.40;;;;;;10198047;28;20782;-64
2021/05/02 01:13:14;;;;;;;8.10;3.05;;;5.50;98.40;;;;;;10199606;28;19930;-63
2021/05/02 01:18:18;;;;;;;4.70;2.95;;;5.50;98.60;;;;;;10199301;28;20062;-64
2021/05/02 01:23:28;;;;;;;8.70;2.22;;;5.40;98.70;;;;;;10202357;28;20588;-64
2021/05/02 01:28:30;;;;;;;10.23;3.03;;;5.40;99.10;;;;;;10200097;28;20084;-64
2021/05/02 01:33:31;;;;;;;14.27;3.33;;;5.40;99.50;;;;;;10201392;28;20561;-64
2021/05/02 01:38:34;;;;;;;4.70;3.03;;;5.40;99.50;;;;;;10196601;28;20053;-64
2021/05/02 01:43:36;;;;;;;;;;;5.40;99.70;;;;;;10201714;28;20054;-64
2021/05/02 01:48:39;;;;;;;5.70;3.03;;;5.30;99.50;;;;;;10202156;28;20027;-64
2021/05/02 01:53:41;;;;;;;6.60;2.47;;;5.30;99.30;;;;;;10201716;28;20050;-64
2021/05/02 01:58:44;;;;;;;4.73;2.20;;;5.30;99.00;;;;;;10199982;28;20108;-64
2021/05/02 02:03:46;;;;;;;12.93;2.80;;;5.20;98.80;;;;;;10200912;28;20165;-64
2021/05/02 02:08:48;;;;;;;3.47;2.00;;;5.30;99.00;;;;;;10200870;28;20550;-64
2021/05/02 02:13:50;;;;;;;8.77;2.67;;;5.40;98.90;;;;;;10196471;28;20890;-64
2021/05/02 02:18:52;;;;;;;2.95;2.17;;;5.20;98.90;;;;;;10197849;28;20081;-63
2021/05/02 02:23:59;;;;;;;4.55;2.13;;;5.20;99.00;;;;;;10198420;28;20602;-63
2021/05/02 02:29:02;;;;;;;6.40;2.28;;;5.10;99.40;;;;;;10196606;28;20069;-63
2021/05/02 02:34:05;;;;;;;7.20;2.03;;;4.90;99.60;;;;;;10195512;28;20050;-63
2021/05/02 02:39:07;;;;;;;14.57;2.85;;;4.80;99.70;;;;;;10195217;28;20054;-62
2021/05/02 02:44:10;;;;;;;5.75;2.45;;;4.90;99.90;;;;;;10195977;28;20059;-64
2021/05/02 02:49:14;;;;;;;9.57;2.33;;;4.90;99.90;;;;;;10193722;28;20237;-64
2021/05/02 02:54:18;;;;;;;6.07;2.08;;;4.90;99.90;;;;;;10196741;28;21367;-62
2021/05/02 02:59:25;;;;;;;8.55;2.35;;;5.00;99.80;;;;;;10197878;28;20065;-64
2021/05/02 03:04:29;;;;;;;7.72;2.45;;;4.90;99.80;;;;;;10195272;28;20128;-63
2021/05/02 03:09:32;;;;;;;2.55;2.17;;;5.00;99.90;;;;;;10198852;28;21303;-63
2021/05/02 03:14:34;;;;;;;7.90;2.00;;;5.00;99.80;;;;;;10199262;28;20060;-63
2021/05/02 03:19:40;;;;;;;2.30;2.10;;;5.00;99.60;;;;;;10195946;28;20261;-64
2021/05/02 03:24:45;;;;;;;5.05;1.98;;;5.00;99.70;;;;;;10196261;28;20148;-64
2021/05/02 03:29:48;;;;;;;9.38;2.05;;;4.90;99.50;;;;;;10197630;28;20081;-64
2021/05/02 03:34:53;;;;;;;5.18;2.05;;;4.90;99.70;;;;;;10196512;28;21936;-63
2021/05/02 03:39:56;;;;;;;9.43;1.92;;;5.10;99.90;;;;;;10195099;28;20095;-63
2021/05/02 03:44:57;;;;;;;9.57;2.00;;;5.40;99.70;;;;;;10196962;28;20054;-64
2021/05/02 03:49:59;;;;;;;7.22;2.35;;;5.30;99.30;;;;;;10194058;28;20183;-64
2021/05/02 03:55:01;;;;;;;3.80;2.75;;;5.20;99.30;;;;;;10192338;28;21158;-64
2021/05/02 04:00:04;;;;;;;14.33;2.07;;;5.30;99.50;;;;;;10195210;28;22129;-64
2021/05/02 04:05:07;;;;;;;13.20;1.85;;;5.40;99.30;;;;;;10196019;28;20608;-61
2021/05/02 04:10:09;;;;;;;7.63;2.60;;;5.40;99.10;;;;;;10195632;28;21037;-64
2021/05/02 04:15:12;;;;;;;6.70;2.40;;;5.50;98.90;;;;;;10194560;28;20061;-64
2021/05/02 04:20:15;;;;;;;12.77;1.98;;;5.50;98.70;;;;;;10195573;28;20050;-63
2021/05/02 04:25:17;;;;;;;3.33;1.77;;;5.40;98.30;;;;;;10194881;28;20058;-64
2021/05/02 04:30:19;;;;;;;6.05;1.70;;;5.40;98.00;;;;;;10194507;28;20722;-64
2021/05/02 04:35:20;;;;;;;11.15;3.13;;;5.50;98.10;;;;;;10192270;28;21240;-64
2021/05/02 04:40:23;;;;;;;6.32;2.30;;;5.60;98.00;;;;;;10192696;28;20134;-63
2021/05/02 04:45:24;;;;;;;6.10;1.80;;;5.60;97.70;;;;;;10194298;28;20049;-64
2021/05/02 04:50:26;;;;;;;4.75;1.90;;;5.60;97.00;;;;;;10191578;28;20430;-64
2021/05/02 04:55:29;;;;;;;5.82;1.80;;;5.60;97.00;;;;;;10193674;28;20061;-63
2021/05/02 05:00:31;;;;;;;8.70;2.08;;;5.90;97.00;;;;;;10196260;28;21597;-64
2021/05/02 05:05:32;;;;;;;5.30;1.95;;;6.60;96.50;;;;;;10194164;28;20057;-64
2021/05/02 05:10:34;;;;;;;12.85;2.15;;;9.00;92.70;;;;;;10190757;28;20421;-65
2021/05/02 05:15:35;;;;;;;4.15;1.08;;;11.50;81.00;;;;;;10192377;28;20050;-64
2021/05/02 05:20:37;;;;;;;3.70;1.20;;;14.00;71.10;;;;;;10191658;28;20058;-64
2021/05/02 05:25:39;;;;;;;3.97;1.42;;;13.90;69.00;;;;;;10193090;28;20058;-64
2021/05/02 05:30:40;;;;;;;5.30;1.43;;;14.30;62.60;;;;;;10192785;28;21351;-64
2021/05/02 05:35:42;;;;;;;6.25;1.23;;;16.70;55.90;;;;;;10192863;28;21691;-64
2021/05/02 05:40:44;;;;;;;3.10;1.33;;;16.20;53.70;;;;;;10193358;28;20089;-64
2021/05/02 05:45:45;;;;;;;3.47;1.10;;;17.90;50.60;;;;;;10195165;28;20133;-62
2021/05/02 05:50:48;;;;;;;3.53;1.17;;;18.30;47.80;;;;;;10198237;28;20104;-62
2021/05/02 05:55:56;;;;;;;5.40;1.33;;;14.50;51.70;;;;;;10196155;28;20054;-62
2021/05/02 06:00:57;;;;;;;5.50;1.10;;;12.00;60.90;;;;;;10196897;28;20701;-62
2021/05/02 06:05:59;;;;;;;4.55;1.35;;;12.20;62.20;;;;;;10196603;28;20306;-62
2021/05/02 06:11:01;;;;;;;2.55;2.03;;;15.10;53.70;;;;;;10198794;28;21091;-62
2021/05/02 06:16:03;;;;;;;3.63;1.00;;;17.10;48.10;;;;;;10195141;28;20058;-62
2021/05/02 06:21:05;;;;;;;4.93;1.00;;;20.60;38.60;;;;;;10194654;28;20894;-62
2021/05/02 06:26:07;;;;;;;9.25;1.33;;;22.40;34.60;;;;;;10198412;28;20060;-62
2021/05/02 06:31:09;;;;;;;;;;;23.00;32.40;;;;;;10196496;28;20086;-63
2021/05/02 06:36:10;;;;;;;2.40;1.10;;;24.10;32.60;;;;;;10194315;28;20008;-62
2021/05/02 06:41:13;;;;;;;5.43;0.90;;;24.20;31.10;;;;;;10198674;28;21090;-63
2021/05/02 06:46:28;;;;;;;4.97;0.90;;;24.60;29.90;;;;;;10196585;28;20054;-63
2021/05/02 06:51:30;;;;;;;3.80;0.80;;;25.30;28.80;;;;;;10192527;28;20215;-63
2021/05/02 06:56:34;;;;;;;5.90;1.17;;;23.10;30.10;;;;;;10193422;28;20139;-63
2021/05/02 07:01:35;;;;;;;5.15;1.00;;;22.40;32.30;;;;;;10192375;28;20105;-65
2021/05/02 07:06:37;;;;;;;3.80;1.50;;;20.70;34.70;;;;;;10196410;28;20054;-65
2021/05/02 07:11:39;;;;;;;2.42;1.08;;;20.90;34.30;;;;;;10191605;28;21303;-66
2021/05/02 07:16:41;;;;;;;4.78;0.85;;;20.90;35.60;;;;;;10195516;28;21085;-65
2021/05/02 07:21:42;;;;;;;2.80;1.23;;;23.50;31.50;;;;;;10196605;28;20181;-65
2021/05/02 07:26:44;;;;;;;1.20;0.60;;;18.50;37.50;;;;;;10195403;28;20766;-64
2021/05/02 07:31:46;;;;;;;5.35;1.40;;;18.70;37.70;;;;;;10191162;28;20062;-65
2021/05/02 07:36:47;;;;;;;3.53;0.80;;;18.00;39.70;;;;;;10192737;28;20070;-65
2021/05/02 07:41:49;;;;;;;3.17;1.15;;;19.60;37.00;;;;;;10194558;28;20049;-65
2021/05/02 07:46:51;;;;;;;4.13;0.80;;;20.00;35.50;;;;;;10194074;28;20188;-66
2021/05/02 07:51:53;;;;;;;2.65;0.80;;;22.30;31.80;;;;;;10193683;28;20748;-65
2021/05/02 07:56:55;;;;;;;2.20;0.80;;;24.10;29.30;;;;;;10191522;28;20149;-64
2021/05/02 08:01:56;;;;;;;3.67;0.70;;;25.20;28.80;;;;;;10194030;28;20057;-65
2021/05/02 08:06:58;;;;;;;3.53;0.80;;;26.10;28.10;;;;;;10193025;28;20647;-66
2021/05/02 08:12:00;;;;;;;2.42;0.70;;;26.90;27.40;;;;;;10191194;28;20154;-65
2021/05/02 08:17:02;;;;;;;4.93;1.00;;;26.70;27.50;;;;;;10190950;28;21151;-66
2021/05/02 08:22:04;;;;;;;3.92;0.68;;;25.80;28.30;;;;;;10192100;28;20161;-65
2021/05/02 08:27:06;;;;;;;2.53;0.85;;;25.90;29.00;;;;;;10191059;28;20134;-65
2021/05/02 08:32:08;;;;;;;1.70;0.60;;;25.30;29.10;;;;;;10192177;28;20065;-65
2021/05/02 08:37:10;;;;;;;4.30;1.15;;;24.60;29.30;;;;;;10191344;28;20157;-65
2021/05/02 08:42:12;;;;;;;4.00;1.17;;;25.00;29.60;;;;;;10192785;28;20061;-65
2021/05/02 08:47:14;;;;;;;1.75;0.85;;;25.90;28.60;;;;;;10192653;28;20057;-65
2021/05/02 08:52:16;;;;;;;4.38;1.25;;;25.60;28.60;;;;;;10193016;28;20049;-66
2021/05/02 08:57:19;;;;;;;3.05;1.05;;;25.40;28.70;;;;;;10191936;28;20055;-66
2021/05/02 09:02:24;;;;;;;3.00;1.13;;;25.10;28.80;;;;;;10192814;28;20046;-65
2021/05/02 09:07:26;;;;;;;4.47;1.52;;;25.40;28.70;;;;;;10190301;28;21316;-65
2021/05/02 09:12:29;;;;;;;3.10;0.80;;;25.00;28.50;;;;;;10191052;28;20050;-68
2021/05/02 09:17:37;;;;;;;3.60;0.70;;;24.80;28.40;;;;;;10190730;28;20050;-64
2021/05/02 09:22:38;;;;;;;1.42;0.90;;;24.70;28.80;;;;;;10191550;28;20061;-66
2021/05/02 09:27:48;;;;;;;3.47;0.60;;;23.90;29.50;;;;;;10198049;28;20459;-65
2021/05/02 09:32:49;;;;;;;3.65;0.88;;;24.30;29.20;;;;;;10201855;28;20160;-66
2021/05/02 09:38:06;;;;;;;1.48;0.95;;;24.30;29.00;;;;;;10197896;28;20117;-65
2021/05/02 09:43:28;;;;;;;4.45;0.70;;;24.40;28.50;;;;;;10197456;28;20077;-65
2021/05/02 09:48:32;;;;;;;1.45;0.52;;;25.10;28.10;;;;;;10199063;28;20092;-64
2021/05/02 09:53:34;;;;;;;2.80;0.60;;;25.70;27.90;;;;;;10197040;28;20080;-67
2021/05/02 09:58:36;;;;;;;1.92;0.95;;;24.80;27.90;;;;;;10200379;28;21138;-67
2021/05/02 10:03:43;;;;;;;3.65;1.02;;;23.80;29.40;;;;;;10195794;28;20092;-66
2021/05/02 10:08:46;;;;;;;1.95;0.90;;;24.20;28.90;;;;;;10200020;28;20988;-66
2021/05/02 10:13:48;;;;;;;6.00;1.08;;;24.60;29.10;;;;;;10196608;28;21073;-65
2021/05/02 10:18:50;;;;;;;2.97;1.02;;;23.60;29.90;;;;;;10197378;28;20060;-64
2021/05/02 10:23:52;;;;;;;4.90;1.25;;;23.40;30.20;;;;;;10196306;28;21833;-65
2021/05/02 10:28:54;;;;;;;5.53;0.93;;;23.60;29.80;;;;;;10196029;28;20145;-68
2021/05/02 10:33:55;;;;;;;3.17;0.70;;;23.10;30.30;;;;;;10194502;28;20089;-66
2021/05/02 10:38:58;;;;;;;1.27;0.45;;;22.30;31.40;;;;;;10197410;28;21417;-65
2021/05/02 10:44:30;;;;;;;5.28;0.70;;;22.70;31.40;;;;;;10197055;28;20576;-67
2021/05/02 10:49:55;;;;;;;2.60;0.52;;;21.90;32.20;;;;;;10197785;28;21919;-65
2021/05/02 10:55:14;;;;;;;4.22;0.80;;;22.80;31.10;;;;;;10195446;28;20927;-65
2021/05/02 11:00:16;;;;;;;4.15;1.38;;;22.90;30.50;;;;;;10195637;28;20112;-67
2021/05/02 11:05:19;;;;;;;0.98;0.55;;;24.00;30.10;;;;;;10197591;28;20861;-65
2021/05/02 11:10:20;;;;;;;4.65;0.85;;;24.00;29.00;;;;;;10195822;28;20092;-67
2021/05/02 11:15:39;;;;;;;1.75;0.75;;;22.40;30.50;;;;;;10193915;28;21292;-65
2021/05/02 11:20:48;;;;;;;17.67;1.20;;;21.30;32.20;;;;;;10192709;28;20054;-65
2021/05/02 11:25:55;;;;;;;1.27;0.65;;;21.30;33.20;;;;;;10193609;28;20175;-67
2021/05/02 11:30:57;;;;;;;1.48;0.73;;;20.60;32.60;;;;;;10193283;28;20825;-65
2021/05/02 11:35:59;;;;;;;0.95;0.40;;;21.60;32.00;;;;;;10194760;28;20080;-65
2021/05/02 11:41:07;;;;;;;2.38;0.70;;;22.00;30.70;;;;;;10193223;28;20099;-64
2021/05/02 11:46:16;;;;;;;4.53;1.30;;;22.40;31.80;;;;;;10190308;28;20096;-64
2021/05/02 11:51:23;;;;;;;1.27;0.70;;;22.60;31.90;;;;;;10191562;28;22451;-66
2021/05/02 11:56:29;;;;;;;4.78;0.82;;;22.40;31.40;;;;;;10191298;28;21333;-66
2021/05/02 12:01:31;;;;;;;3.45;0.60;;;21.80;31.80;;;;;;10191779;28;20774;-66
2021/05/02 12:06:34;;;;;;;2.35;0.70;;;21.20;31.90;;;;;;10190826;28;20054;-66
2021/05/02 12:11:36;;;;;;;3.65;0.90;;;21.00;32.80;;;;;;10188869;28;22041;-65
2021/05/02 12:16:37;;;;;;;1.30;0.43;;;21.10;32.80;;;;;;10189914;28;20249;-64
2021/05/02 12:21:41;;;;;;;0.98;0.38;;;21.30;31.60;;;;;;10190754;28;20054;-67
2021/05/02 12:26:44;;;;;;;1.63;0.50;;;21.00;32.20;;;;;;10194098;28;21723;-65
2021/05/02 12:31:51;;;;;;;4.07;0.57;;;20.10;33.90;;;;;;10190878;28;21111;-66
2021/05/02 12:36:54;;;;;;;1.83;0.80;;;19.60;36.00;;;;;;10190531;28;20727;-66
2021/05/02 12:41:55;;;;;;;2.92;0.77;;;19.20;36.60;;;;;;10190261;28;20160;-67
2021/05/02 12:46:58;;;;;;;1.08;0.50;;;19.10;35.80;;;;;;10193442;28;20058;-67
2021/05/02 12:52:10;;;;;;;1.05;0.70;;;19.10;35.50;;;;;;10192740;28;20510;-65
2021/05/02 12:57:14;;;;;;;4.00;0.52;;;19.20;35.40;;;;;;10192033;28;20522;-67
2021/05/02 13:02:18;;;;;;;0.75;0.55;;;19.20;35.80;;;;;;10199194;28;20143;-66
2021/05/02 13:07:38;;;;;;;2.15;0.60;;;19.50;34.70;;;;;;10196012;28;20061;-66
2021/05/02 13:12:53;;;;;;;0.50;0.35;;;19.60;34.40;;;;;;10199381;28;20058;-66
2021/05/02 13:17:59;;;;;;;1.85;0.60;;;19.40;35.40;;;;;;10199673;28;20085;-66
2021/05/02 13:23:02;;;;;;;1.58;0.50;;;18.80;36.10;;;;;;10198532;28;20053;-68
2021/05/02 13:28:07;;;;;;;7.97;0.93;;;18.60;37.40;;;;;;10198646;28;20065;-67
2021/05/02 13:33:10;;;;;;;3.20;0.82;;;18.40;37.60;;;;;;10199771;28;20054;-65
2021/05/02 13:38:15;;;;;;;1.77;0.50;;;18.10;38.00;;;;;;10204884;28;20144;-64
2021/05/02 13:43:17;;;;;;;0.90;0.50;;;17.90;39.20;;;;;;10200428;28;20145;-66
2021/05/02 13:48:21;;;;;;;1.20;0.55;;;17.80;38.70;;;;;;10195094;28;20054;-67
2021/05/02 13:53:23;;;;;;;1.27;0.40;;;17.60;40.00;;;;;;10195467;28;20706;-66
2021/05/02 13:58:25;;;;;;;3.15;0.60;;;17.50;40.40;;;;;;10195257;28;21567;-65
2021/05/02 14:03:28;;;;;;;2.93;0.43;;;17.20;41.10;;;;;;10196713;28;21946;-65
2021/05/02 14:08:31;;;;;;;4.03;0.80;;;17.20;40.80;;;;;;10197562;28;20502;-65
2021/05/02 14:13:32;;;;;;;;;;;17.40;40.00;;;;;;10194678;28;21132;-66
2021/05/02 14:18:34;;;;;;;2.50;0.70;;;16.80;40.80;;;;;;10197544;28;19929;-65
2021/05/02 14:23:36;;;;;;;3.47;0.67;;;16.40;42.00;;;;;;10194541;28;20764;-66
2021/05/02 14:28:38;;;;;;;3.30;0.75;;;16.60;41.70;;;;;;10194044;28;20500;-66
2021/05/02 14:33:39;;;;;;;3.03;0.80;;;17.10;41.80;;;;;;10195468;28;20061;-66
2021/05/02 14:38:42;;;;;;;0.57;0.47;;;17.40;41.50;;;;;;10197027;28;20050;-66
2021/05/02 14:43:43;;;;;;;;;;;18.00;41.40;;;;;;10196113;28;20546;-66
2021/05/02 14:48:44;;;;;;;1.08;0.57;;;18.40;40.10;;;;;;10196292;28;20910;-65
2021/05/02 14:53:47;;;;;;;6.03;0.60;;;18.50;39.30;;;;;;10194754;28;20046;-66
2021/05/02 14:58:49;;;;;;;2.35;0.73;;;18.00;40.20;;;;;;10194771;28;20488;-65
2021/05/02 15:03:50;;;;;;;4.83;0.67;;;18.00;40.30;;;;;;10195093;28;21241;-65
2021/05/02 15:08:53;;;;;;;3.67;0.82;;;17.60;39.70;;;;;;10191657;28;21958;-65
2021/05/02 15:13:54;;;;;;;2.30;0.60;;;17.00;40.50;;;;;;10191272;28;20060;-66
2021/05/02 15:18:55;;;;;;;1.35;0.47;;;16.40;42.60;;;;;;10191242;28;20062;-65
2021/05/02 15:23:58;;;;;;;2.40;0.93;;;16.10;42.80;;;;;;10194149;28;20069;-65
2021/05/02 15:29:02;;;;;;;4.32;0.73;;;16.10;42.60;;;;;;10194850;28;20069;-66
2021/05/02 15:34:04;;;;;;;1.40;0.60;;;15.80;43.20;;;;;;10191563;28;20139;-65
2021/05/02 15:39:07;;;;;;;1.75;0.50;;;15.30;43.40;;;;;;10190512;28;20587;-65
2021/05/02 15:44:10;;;;;;;1.73;0.60;;;14.80;45.40;;;;;;10193382;28;20049;-66
2021/05/02 15:49:11;;;;;;;;;;;15.00;45.80;;;;;;10193931;28;20054;-65
2021/05/02 15:54:14;;;;;;;4.25;0.70;;;14.80;45.70;;;;;;10191599;28;19929;-65
2021/05/02 15:59:15;;;;;;;1.75;0.70;;;14.40;46.20;;;;;;10191729;28;20081;-65
2021/05/02 16:04:17;;;;;;;6.32;0.50;;;14.10;47.60;;;;;;10195555;28;20611;-65
2021/05/02 16:09:19;;;;;;;2.95;0.45;;;13.90;47.90;;;;;;10192841;28;20065;-65
2021/05/02 16:14:20;;;;;;;1.88;0.50;;;13.70;48.40;;;;;;10192584;28;20062;-67
2021/05/02 16:19:22;;;;;;;2.05;0.60;;;13.70;49.30;;;;;;10189603;28;20058;-66
2021/05/02 16:24:24;;;;;;;1.33;0.55;;;13.50;49.70;;;;;;10192132;28;21353;-65
2021/05/02 16:29:25;;;;;;;1.27;0.50;;;13.30;50.70;;;;;;10192266;28;20069;-66
2021/05/02 16:34:27;;;;;;;5.03;0.70;;;13.10;51.20;;;;;;10191920;28;21473;-65
2021/05/02 16:39:30;;;;;;;2.58;0.80;;;12.90;51.90;;;;;;10189906;28;20877;-66
2021/05/02 16:44:33;;;;;;;2.33;0.70;;;12.70;52.60;;;;;;10192133;28;20054;-65
2021/05/02 16:49:35;;;;;;;1.73;0.70;;;12.60;53.20;;;;;;10189910;28;20787;-67
2021/05/02 16:54:38;;;;;;;0.63;0.57;;;12.20;54.30;;;;;;10193189;28;21661;-67
2021/05/02 16:59:43;;;;;;;7.00;0.68;;;11.90;54.80;;;;;;10211141;28;20522;-66
2021/05/02 17:04:45;;;;;;;2.25;0.60;;;11.80;56.90;;;;;;10204490;28;20148;-68
2021/05/02 17:09:47;;;;;;;1.55;0.80;;;11.60;56.50;;;;;;10190774;28;21233;-66
2021/05/02 17:14:48;;;;;;;2.25;0.90;;;11.40;57.90;;;;;;10191608;28;20046;-66
2021/05/02 17:19:50;;;;;;;2.78;0.70;;;11.00;60.00;;;;;;10198371;28;20998;-65
2021/05/02 17:24:52;;;;;;;3.15;0.98;;;10.80;60.40;;;;;;10203198;28;21384;-68
2021/05/02 17:29:53;;;;;;;6.60;1.17;;;10.70;62.70;;;;;;10204084;28;20653;-67
2021/05/02 17:34:56;;;;;;;1.80;0.70;;;10.50;63.60;;;;;;10190438;28;20113;-66
2021/05/02 17:39:58;;;;;;;2.40;0.83;;;10.40;64.50;;;;;;10189275;28;20049;-65
2021/05/02 17:44:59;;;;;;;3.72;1.35;;;10.20;65.30;;;;;;10197028;28;20097;-65
2021/05/02 17:50:03;;;;;;;2.63;0.73;;;9.90;67.40;;;;;;10200394;28;20691;-67
2021/05/02 17:55:07;;;;;;;2.05;1.10;;;9.80;69.60;;;;;;10199027;28;20046;-65
2021/05/02 18:00:10;;;;;;;6.03;1.00;;;9.60;70.80;;;;;;10198429;28;20054;-66
2021/05/02 18:05:14;;;;;;;1.90;0.70;;;9.50;72.60;;;;;;10200247;28;21329;-64
2021/05/02 18:10:16;;;;;;;5.88;1.00;;;9.30;74.20;;;;;;10198476;28;20047;-66
2021/05/02 18:15:18;;;;;;;1.17;0.80;;;9.20;75.30;;;;;;10198201;28;20049;-67
2021/05/02 18:20:21;;;;;;;1.50;0.67;;;9.00;76.10;;;;;;10194661;28;20436;-66
2021/05/02 18:25:24;;;;;;;2.33;0.63;;;8.80;77.40;;;;;;10195502;28;20050;-68
2021/05/02 18:30:25;;;;;;;1.88;0.93;;;8.70;78.00;;;;;;10199144;28;21353;-66
2021/05/02 18:35:26;;;;;;;1.13;0.80;;;8.50;79.00;;;;;;10195857;28;21879;-65
2021/05/02 18:40:29;;;;;;;1.63;0.85;;;8.30;79.90;;;;;;10194888;28;20054;-65
2021/05/02 18:45:31;;;;;;;9.20;0.95;;;7.40;80.80;;;;;;10193563;28;21402;-64
2021/05/02 18:50:33;;;;;;;7.93;1.00;;;8.00;82.70;;;;;;10195761;28;20050;-63
2021/05/02 18:55:37;;;;;;;1.93;0.93;;;7.80;83.40;;;;;;10192281;28;20054;-63
2021/05/02 19:00:38;;;;;;;2.17;0.80;;;7.70;84.70;;;;;;10194559;28;20523;-65
2021/05/02 19:05:40;;;;;;;2.75;0.80;;;7.60;85.30;;;;;;10193769;28;20141;-65
2021/05/02 19:10:43;;;;;;;5.38;1.05;;;7.40;85.50;;;;;;10196433;28;21272;-68
2021/05/02 19:15:44;;;;;;;1.95;1.50;;;7.30;86.30;;;;;;10194625;28;20050;-63
2021/05/02 19:20:46;;;;;;;9.95;1.10;;;7.20;87.90;;;;;;10193306;28;20434;-66
2021/05/02 19:25:49;;;;;;;8.07;1.20;;;7.10;88.40;;;;;;10195637;28;20054;-64
2021/05/02 19:30:50;;;;;;;5.55;1.38;;;7.00;89.10;;;;;;10194643;28;20066;-65
2021/05/02 19:35:52;;;;;;;3.72;1.25;;;6.90;90.50;;;;;;10193690;28;20925;-63
2021/05/02 19:40:54;;;;;;;1.80;1.35;;;6.80;90.20;;;;;;10193877;28;20106;-64
2021/05/02 19:45:56;;;;;;;2.60;1.20;;;6.70;91.00;;;;;;10193129;28;20589;-66
2021/05/02 19:50:58;;;;;;;2.78;1.50;;;6.70;91.30;;;;;;10196805;28;20185;-64
2021/05/02 19:56:00;;;;;;;7.63;1.70;;;6.70;91.80;;;;;;10191492;28;20060;-64
2021/05/02 20:01:02;;;;;;;3.83;1.85;;;6.70;92.10;;;;;;10192117;28;20888;-63
2021/05/02 20:06:04;;;;;;;4.93;2.15;;;6.60;91.80;;;;;;10196341;28;20062;-64
2021/05/02 20:11:06;;;;;;;2.22;1.73;;;6.50;92.20;;;;;;10193550;28;20085;-64
2021/05/02 20:16:07;;;;;;;7.00;2.65;;;6.40;92.90;;;;;;10196214;28;20619;-65
2021/05/02 20:21:09;;;;;;;5.38;3.30;;;6.20;92.50;;;;;;10192504;28;20648;-64
2021/05/02 20:26:11;;;;;;;6.28;2.38;;;6.10;92.80;;;;;;10188698;28;20313;-64
2021/05/02 20:31:13;;;;;;;6.90;2.70;;;6.10;93.50;;;;;;10189667;28;20065;-64
2021/05/02 20:36:16;;;;;;;5.15;2.85;;;4.30;92.90;;;;;;10191294;28;20581;-64
2021/05/02 20:41:19;;;;;;;5.75;2.78;;;5.90;93.60;;;;;;10191799;28;21451;-64
2021/05/02 20:46:20;;;;;;;11.77;2.73;;;5.90;94.00;;;;;;10193447;28;20217;-64
2021/05/02 20:51:22;;;;;;;5.05;2.75;;;5.90;94.30;;;;;;10193063;28;20485;-64
2021/05/02 20:56:25;;;;;;;3.50;2.72;;;6.00;94.60;;;;;;10191683;28;20057;-64
2021/05/02 21:01:26;;;;;;;6.23;2.60;;;5.90;94.80;;;;;;10191287;28;20062;-64
2021/05/02 21:06:28;;;;;;;9.80;3.13;;;5.90;94.80;;;;;;10191306;28;20175;-65
2021/05/02 21:11:31;;;;;;;3.97;2.92;;;5.90;94.90;;;;;;10190008;28;20057;-63
2021/05/02 21:16:33;;;;;;;5.60;3.13;;;5.80;94.70;;;;;;10190091;28;20042;-65
2021/05/02 21:21:35;;;;;;;8.10;3.75;;;5.70;97.00;;;;;;10198140;28;20478;-65
2021/05/02 21:26:38;;;;;;;4.97;3.30;;;5.50;94.70;;;;;;10199353;28;20058;-66
2021/05/02 21:31:40;;;;;;;5.25;3.13;;;5.70;95.60;;;;;;10199050;28;20080;-63
2021/05/02 21:36:42;;;;;;;3.35;2.30;;;5.80;95.60;;;;;;10201614;28;20058;-65
2021/05/02 21:41:44;;;;;;;5.57;2.72;;;6.00;97.70;;;;;;10200911;28;20607;-63
2021/05/02 21:46:46;;;;;;;3.90;3.00;;;5.90;95.30;;;;;;10187233;28;20095;-64
2021/05/02 21:51:47;;;;;;;4.03;2.35;;;5.90;95.40;;;;;;10200615;28;20085;-65
2021/05/02 21:56:50;;;;;;;8.40;3.40;;;7.10;95.50;;;;;;10199480;28;21032;-64
2021/05/02 22:01:52;;;;;;;9.85;3.60;;;6.10;95.20;;;;;;10201070;28;20053;-66
2021/05/02 22:06:54;;;;;;;7.72;3.53;;;6.20;94.90;;;;;;10199076;28;21390;-64
2021/05/02 22:11:57;;;;;;;4.70;2.63;;;6.40;94.80;;;;;;10199682;28;20164;-64
2021/05/02 22:16:58;;;;;;;4.47;2.95;;;6.60;94.60;;;;;;10197755;28;20057;-64
2021/05/02 22:22:00;;;;;;;4.22;2.40;;;6.70;94.50;;;;;;10198992;28;21365;-64
2021/05/02 22:27:02;;;;;;;4.35;2.75;;;6.80;94.30;;;;;;10197575;28;20189;-64
2021/05/02 22:32:04;;;;;;;6.78;3.08;;;6.90;94.20;;;;;;10198588;28;20066;-64
2021/05/02 22:37:06;;;;;;;4.40;2.10;;;7.00;94.40;;;;;;10198348;28;20096;-63
2021/05/02 22:42:08;;;;;;;6.72;2.85;;;7.10;94.40;;;;;;10198872;28;21299;-65
2021/05/02 22:47:10;;;;;;;3.95;2.65;;;7.10;94.10;;;;;;10197916;28;21332;-64
2021/05/02 22:52:12;;;;;;;6.63;2.77;;;7.00;94.10;;;;;;10193543;28;21076;-64
2021/05/02 22:57:14;;;;;;;5.93;2.80;;;7.00;94.20;;;;;;10195025;28;20136;-64
2021/05/02 23:02:16;;;;;;;7.73;3.53;;;6.90;94.50;;;;;;10194718;28;20049;-64
2021/05/02 23:07:18;;;;;;;6.75;3.67;;;6.80;97.30;;;;;;10196221;28;20165;-63
2021/05/02 23:12:20;;;;;;;4.32;3.72;;;6.80;94.70;;;;;;10195943;28;20058;-64
2021/05/02 23:17:22;;;;;;;11.83;5.00;;;6.80;94.70;;;;;;10196941;28;20770;-64
2021/05/02 23:22:23;;;;;;;9.27;5.53;;;6.70;95.10;;;;;;10197518;28;20777;-63
2021/05/02 23:27:26;;;;;;;10.95;5.50;;;6.60;95.20;;;;;;10195811;28;20049;-64
2021/05/02 23:32:27;;;;;;;12.55;5.57;;;6.50;95.60;;;;;;10196388;28;21343;-63
2021/05/02 23:37:28;;;;;;;8.05;5.72;;;6.50;95.90;;;;;;10196044;28;20094;-64
2021/05/02 23:42:32;;;;;;;13.07;5.85;;;6.40;96.00;;;;;;10194429;28;20846;-64
2021/05/02 23:47:33;;;;;;;8.98;4.95;;;6.40;96.20;;;;;;10193936;28;20060;-64
2021/05/02 23:52:35;;;;;;;18.73;6.22;;;6.30;96.60;;;;;;10192883;28;21203;-64
2021/05/02 23:57:38;;;;;;;13.32;6.53;;;6.30;97.00;;;;;;10192348;28;22126;-64
